Time;durP1;ratioP1;P1;durP2;ratioP2;P2;SDS_P1;SDS_P2;PMS_P1;PMS_P2;Temp;Humidity;BMP_temperature;BMP_pressure;BME280_temperature;BME280_humidity;BME280_pressure;Samples;Min_cycle;Max_cycle;Signal;HPM_P1;HPM_P2
2024/02/24 06:00:54;;;;;;;4.43;1.88;;;4.00;91.80;;;;;;4633991;23;20195;-78
2024/02/24 06:02:56;;;;;;;7.10;1.88;;;4.10;91.90;;;;;;4084131;29;20059;-79
2024/02/24 06:04:58;;;;;;;5.05;2.00;;;4.20;91.90;;;;;;4087930;29;20048;-77
2024/02/24 06:07:00;;;;;;;10.60;5.30;;;4.20;91.90;;;;;;4085723;29;20552;-77
2024/02/24 06:09:01;;;;;;;7.60;1.98;;;4.30;91.80;;;;;;4088288;29;20052;-78
2024/02/24 06:11:04;;;;;;;5.03;2.35;;;4.20;92.00;;;;;;4095859;29;20501;-77
2024/02/24 06:13:07;;;;;;;5.70;2.40;;;4.20;91.70;;;;;;4086850;29;20043;-78
2024/02/24 06:15:11;;;;;;;5.40;2.20;;;4.10;91.80;;;;;;4086656;29;20155;-77
2024/02/24 06:17:14;;;;;;;6.13;2.50;;;4.10;91.90;;;;;;4086933;29;20051;-78
2024/02/24 06:19:15;;;;;;;5.22;2.17;;;4.10;91.90;;;;;;4085946;29;20458;-78
2024/02/24 06:21:16;;;;;;;5.70;2.25;;;4.20;91.90;;;;;;4079255;29;20048;-78
2024/02/24 06:23:18;;;;;;;7.85;3.40;;;4.30;91.70;;;;;;4083702;29;20099;-78
2024/02/24 06:25:20;;;;;;;4.75;2.13;;;4.30;91.70;;;;;;4090936;29;20389;-77
2024/02/24 06:27:22;;;;;;;3.80;1.67;;;4.40;91.60;;;;;;4094914;29;20177;-77
2024/02/24 06:29:23;;;;;;;6.00;1.63;;;4.30;91.90;;;;;;4086047;29;20545;-76
2024/02/24 06:31:25;;;;;;;4.25;1.45;;;4.10;92.00;;;;;;4086431;29;20059;-79
2024/02/24 06:33:28;;;;;;;5.07;1.63;;;4.00;92.90;;;;;;4081731;29;20090;-78
2024/02/24 06:35:29;;;;;;;4.55;1.70;;;4.00;93.10;;;;;;4083939;29;20461;-79
2024/02/24 06:37:31;;;;;;;5.63;1.77;;;4.20;93.00;;;;;;4079663;29;20043;-78
2024/02/24 06:39:32;;;;;;;5.05;1.77;;;4.30;92.90;;;;;;4083838;29;20453;-77
2024/02/24 06:41:34;;;;;;;5.50;1.50;;;4.40;93.00;;;;;;4083681;29;20446;-80
2024/02/24 06:43:36;;;;;;;4.05;1.52;;;4.50;92.80;;;;;;4078778;29;20094;-80
2024/02/24 06:45:37;;;;;;;4.45;1.90;;;4.60;92.90;;;;;;4082981;29;20048;-80
2024/02/24 06:47:39;;;;;;;3.70;1.40;;;4.60;93.10;;;;;;4081297;29;20111;-77
2024/02/24 06:49:43;;;;;;;3.70;1.50;;;4.70;93.20;;;;;;4085463;29;20437;-79
2024/02/24 06:51:44;;;;;;;3.60;1.40;;;4.70;93.40;;;;;;4085823;29;20039;-77
2024/02/24 06:53:47;;;;;;;3.60;1.60;;;4.70;93.60;;;;;;4084975;29;20453;-77
2024/02/24 06:55:49;;;;;;;4.13;1.42;;;4.70;93.70;;;;;;4085072;29;20437;-78
2024/02/24 06:57:50;;;;;;;3.47;1.40;;;4.70;93.80;;;;;;4085084;29;20299;-78
2024/02/24 06:59:52;;;;;;;3.72;1.30;;;4.70;93.90;;;;;;4068226;29;20418;-78
2024/02/24 07:01:55;;;;;;;3.10;1.30;;;4.80;94.00;;;;;;4089851;29;20408;-78
2024/02/24 07:03:57;;;;;;;2.63;1.00;;;4.80;94.20;;;;;;4086255;29;20055;-78
2024/02/24 07:06:01;;;;;;;2.40;1.00;;;4.80;94.40;;;;;;4086107;29;20111;-77
2024/02/24 07:08:03;;;;;;;2.17;0.80;;;4.90;94.60;;;;;;4086187;29;20083;-78
2024/02/24 07:10:05;;;;;;;2.10;1.05;;;4.90;94.80;;;;;;4086106;29;20532;-79
2024/02/24 07:12:08;;;;;;;4.15;0.90;;;4.90;94.80;;;;;;4086109;29;20047;-80
2024/02/24 07:14:10;;;;;;;2.38;0.75;;;5.00;94.70;;;;;;4085580;29;20047;-76
2024/02/24 07:16:13;;;;;;;2.55;0.70;;;5.10;94.70;;;;;;4085823;29;20067;-76
2024/02/24 07:18:15;;;;;;;3.30;0.85;;;5.10;94.60;;;;;;4085852;29;20408;-75
2024/02/24 07:20:17;;;;;;;1.75;0.77;;;5.20;94.60;;;;;;4082589;29;20051;-78
2024/02/24 07:22:21;;;;;;;2.30;0.70;;;5.30;94.60;;;;;;4082232;29;20055;-78
2024/02/24 07:24:22;;;;;;;2.40;0.60;;;5.30;94.20;;;;;;4083412;29;20060;-79
2024/02/24 07:26:23;;;;;;;2.53;0.73;;;5.30;94.10;;;;;;4084738;29;20135;-79
2024/02/24 07:28:26;;;;;;;1.60;0.70;;;5.40;94.10;;;;;;4085547;29;20497;-75
2024/02/24 07:30:27;;;;;;;1.70;0.65;;;5.40;94.20;;;;;;4086160;29;20095;-77
2024/02/24 07:32:29;;;;;;;2.20;0.80;;;5.40;93.40;;;;;;4087110;29;20055;-77
2024/02/24 07:34:31;;;;;;;2.10;0.60;;;5.50;92.80;;;;;;4086655;29;20560;-78
2024/02/24 07:36:33;;;;;;;3.15;0.80;;;5.50;92.70;;;;;;4083953;29;20118;-80
2024/02/24 07:38:39;;;;;;;1.80;0.60;;;5.60;92.20;;;;;;4093466;29;20068;-79
2024/02/24 07:40:41;;;;;;;2.53;0.60;;;5.50;91.90;;;;;;4091408;29;20100;-78
2024/02/24 07:42:43;;;;;;;3.53;0.95;;;5.60;91.60;;;;;;4085357;29;20059;-79
2024/02/24 07:44:46;;;;;;;2.13;0.70;;;5.70;91.60;;;;;;4085135;29;20044;-78
2024/02/24 07:46:47;;;;;;;2.50;1.10;;;5.70;91.20;;;;;;4083489;29;20083;-80
2024/02/24 07:48:49;;;;;;;2.22;0.80;;;5.80;91.10;;;;;;4084892;29;20055;-77
2024/02/24 07:50:51;;;;;;;4.55;1.58;;;5.80;90.80;;;;;;4084748;29;20111;-76
2024/02/24 07:52:53;;;;;;;2.70;0.70;;;5.80;90.80;;;;;;4083299;29;20078;-77
2024/02/24 07:54:56;;;;;;;1.88;0.70;;;5.80;90.60;;;;;;4078523;29;20060;-77
2024/02/24 07:56:58;;;;;;;2.28;0.70;;;5.80;90.50;;;;;;4084593;29;20453;-77
2024/02/24 07:59:00;;;;;;;1.92;0.80;;;5.80;90.40;;;;;;4084591;29;20462;-77
2024/02/24 08:01:02;;;;;;;2.35;0.70;;;5.80;90.50;;;;;;4084812;29;20064;-75
2024/02/24 08:03:04;;;;;;;1.95;0.65;;;5.90;90.50;;;;;;4084774;29;20069;-76
2024/02/24 08:05:07;;;;;;;2.88;1.10;;;5.80;90.70;;;;;;4084831;29;20044;-76
2024/02/24 08:07:08;;;;;;;2.67;1.00;;;5.70;92.00;;;;;;4083359;29;20544;-78
2024/02/24 08:09:09;;;;;;;2.28;0.85;;;5.50;92.90;;;;;;4084055;29;20107;-76
2024/02/24 08:11:12;;;;;;;3.15;0.90;;;5.40;93.70;;;;;;4084471;29;20438;-77
2024/02/24 08:13:14;;;;;;;2.88;0.80;;;5.40;94.20;;;;;;4085263;29;20071;-79
2024/02/24 08:15:16;;;;;;;2.10;0.80;;;5.40;94.40;;;;;;4085252;29;20102;-79
2024/02/24 08:17:18;;;;;;;2.95;0.82;;;5.30;94.80;;;;;;4085872;29;20493;-77
2024/02/24 08:19:20;;;;;;;3.58;0.70;;;5.20;95.30;;;;;;4085521;29;20111;-77
2024/02/24 08:21:23;;;;;;;3.10;0.80;;;5.20;95.40;;;;;;4084702;29;20047;-78
2024/02/24 08:23:24;;;;;;;1.45;0.68;;;5.20;95.20;;;;;;4085593;29;20099;-79
2024/02/24 08:25:26;;;;;;;1.80;0.80;;;5.30;95.00;;;;;;4085281;29;20052;-78
2024/02/24 08:27:30;;;;;;;5.32;2.25;;;5.30;94.90;;;;;;4082942;29;20106;-78
2024/02/24 08:29:31;;;;;;;2.90;1.10;;;5.30;94.90;;;;;;4085115;29;20047;-80
2024/02/24 08:31:34;;;;;;;2.60;1.00;;;5.30;95.00;;;;;;4084748;29;20130;-78
2024/02/24 08:33:36;;;;;;;1.63;0.65;;;5.40;94.80;;;;;;4084937;29;20054;-79
2024/02/24 08:35:38;;;;;;;2.50;0.80;;;5.40;94.60;;;;;;4085288;29;20398;-78
2024/02/24 08:37:41;;;;;;;1.80;0.77;;;5.40;94.80;;;;;;4086835;29;20099;-79
2024/02/24 08:39:42;;;;;;;2.85;0.90;;;5.40;94.80;;;;;;4087044;29;20047;-79
2024/02/24 08:41:44;;;;;;;2.83;0.90;;;5.40;94.80;;;;;;4086078;29;20516;-78
2024/02/24 08:43:47;;;;;;;2.13;0.60;;;5.40;94.70;;;;;;4086966;29;20048;-79
2024/02/24 08:45:49;;;;;;;2.95;0.90;;;5.50;94.60;;;;;;4084841;29;20058;-77
2024/02/24 08:47:50;;;;;;;2.03;0.77;;;5.50;94.40;;;;;;4084156;29;20098;-78
2024/02/24 08:49:52;;;;;;;2.38;0.68;;;5.60;94.40;;;;;;4084592;29;20052;-78
2024/02/24 08:51:54;;;;;;;2.35;0.95;;;5.70;94.10;;;;;;4084694;29;20509;-77
2024/02/24 08:53:55;;;;;;;1.63;0.70;;;5.70;93.70;;;;;;4084029;29;20080;-79
2024/02/24 08:56:01;;;;;;;1.88;0.70;;;5.70;92.90;;;;;;4082537;29;20043;-80
2024/02/24 08:58:03;;;;;;;1.67;0.63;;;5.80;92.50;;;;;;4082131;29;20549;-80
2024/02/24 09:00:09;;;;;;;2.13;0.65;;;5.80;91.60;;;;;;4082520;29;20544;-78
2024/02/24 09:02:12;;;;;;;0.68;0.43;;;5.90;90.60;;;;;;4082747;29;20070;-82
2024/02/24 09:04:14;;;;;;;1.27;0.52;;;6.00;89.90;;;;;;4076459;29;20474;-79
2024/02/24 09:06:16;;;;;;;2.40;0.70;;;6.10;89.50;;;;;;4082017;29;20098;-80
2024/02/24 09:08:17;;;;;;;3.17;0.77;;;6.10;89.10;;;;;;4081723;29;20048;-78
2024/02/24 09:10:19;;;;;;;90.53;9.48;;;6.20;87.00;;;;;;4079319;29;20050;-80
2024/02/24 09:12:21;;;;;;;1.77;0.50;;;6.20;85.80;;;;;;4081527;29;20048;-80
2024/02/24 09:14:21;;;;;;;17.60;1.58;;;6.30;82.60;;;;;;4081020;29;20552;-80
2024/02/24 09:16:25;;;;;;;1.63;0.60;;;6.30;82.40;;;;;;4081204;29;20052;-78
2024/02/24 09:18:27;;;;;;;28.60;3.40;;;6.40;82.20;;;;;;4081342;29;20485;-79
2024/02/24 09:20:29;;;;;;;1.13;0.40;;;6.40;81.90;;;;;;4081734;29;20131;-78
2024/02/24 09:22:31;;;;;;;3.72;0.85;;;6.50;81.40;;;;;;4078183;29;20051;-79
2024/02/24 09:24:35;;;;;;;27.25;2.60;;;6.60;81.80;;;;;;4081712;29;20119;-78
2024/02/24 09:26:37;;;;;;;71.03;8.88;;;6.60;80.10;;;;;;4082282;29;20044;-79
2024/02/24 09:28:39;;;;;;;1.90;0.47;;;6.60;79.60;;;;;;4080317;29;20044;-78
2024/02/24 09:30:41;;;;;;;4.63;0.75;;;6.70;77.60;;;;;;4082675;29;20048;-78
2024/02/24 09:32:43;;;;;;;32.38;4.65;;;6.80;78.20;;;;;;4082854;29;20055;-80
2024/02/24 09:34:45;;;;;;;7.03;1.13;;;6.90;77.90;;;;;;4082507;29;20048;-80
2024/02/24 09:36:47;;;;;;;1.10;0.47;;;7.00;76.40;;;;;;4082467;29;20044;-80
2024/02/24 09:38:49;;;;;;;3.38;0.82;;;7.00;75.80;;;;;;4083598;29;20055;-79
2024/02/24 09:40:51;;;;;;;4.28;0.73;;;7.10;75.30;;;;;;4085297;29;20395;-80
2024/02/24 09:43:03;;;;;;;6.72;0.73;;;7.10;75.60;;;;;;4085767;29;20047;-77
2024/02/24 09:45:12;;;;;;;45.58;5.50;;;7.20;74.90;;;;;;4085368;29;20058;-80
2024/02/24 09:47:15;;;;;;;24.88;3.03;;;7.10;74.20;;;;;;4085710;29;20091;-79
2024/02/24 09:49:18;;;;;;;5.28;0.95;;;7.20;74.70;;;;;;4081713;29;20051;-79
2024/02/24 09:51:20;;;;;;;373.75;38.00;;;7.20;73.80;;;;;;4080552;29;20111;-80
2024/02/24 09:53:22;;;;;;;5.88;1.00;;;7.20;74.00;;;;;;4077790;29;20044;-78
2024/02/24 09:55:24;;;;;;;4.05;0.80;;;7.30;73.10;;;;;;4083385;29;20079;-79
2024/02/24 09:57:30;;;;;;;1.35;0.40;;;7.30;73.70;;;;;;4086767;29;20052;-79
2024/02/24 09:59:34;;;;;;;2.88;0.50;;;7.30;74.10;;;;;;4086972;29;20062;-79
2024/02/24 10:01:37;;;;;;;1.77;0.47;;;7.20;74.40;;;;;;4085217;29;20115;-80
2024/02/24 10:03:40;;;;;;;0.35;0.25;;;7.40;74.30;;;;;;4084609;29;20047;-82
2024/02/24 10:05:44;;;;;;;3.33;0.63;;;7.30;72.10;;;;;;4085467;29;20047;-80
2024/02/24 10:07:47;;;;;;;1.20;0.40;;;7.30;72.80;;;;;;4079505;29;20142;-84
2024/02/24 10:09:49;;;;;;;1.38;0.55;;;7.40;73.30;;;;;;4084558;29;20101;-80
2024/02/24 10:11:51;;;;;;;1.63;0.57;;;7.40;73.00;;;;;;4079206;29;20047;-79
2024/02/24 10:13:55;;;;;;;1.88;0.50;;;7.50;73.40;;;;;;4083129;29;20494;-79
2024/02/24 10:15:57;;;;;;;1.30;0.40;;;7.50;72.30;;;;;;4078245;29;20647;-83
2024/02/24 10:18:00;;;;;;;1.52;0.50;;;7.40;71.20;;;;;;4086160;29;20048;-83
2024/02/24 10:20:03;;;;;;;1.80;0.40;;;7.50;70.90;;;;;;4070414;29;20111;-81
2024/02/24 10:22:06;;;;;;;2.58;0.50;;;7.50;71.20;;;;;;4070867;29;20612;-81
2024/02/24 10:24:08;;;;;;;2.00;0.60;;;7.50;71.10;;;;;;4070656;29;20052;-83
2024/02/24 10:26:09;;;;;;;2.75;0.43;;;7.50;71.00;;;;;;4072208;29;20103;-82
2024/02/24 10:28:12;;;;;;;1.95;0.50;;;7.60;70.40;;;;;;4077806;29;20055;-84
2024/02/24 10:30:15;;;;;;;0.80;0.22;;;7.70;70.60;;;;;;4082140;29;20779;-83
2024/02/24 10:32:17;;;;;;;2.05;0.47;;;7.80;70.70;;;;;;4084081;29;20166;-81
2024/02/24 10:34:19;;;;;;;0.80;0.20;;;7.90;71.40;;;;;;4078873;29;20397;-80
2024/02/24 10:36:22;;;;;;;1.30;0.50;;;7.90;69.90;;;;;;4086606;29;20051;-81
2024/02/24 10:38:27;;;;;;;1.05;0.40;;;8.00;70.40;;;;;;4078907;29;20111;-82
2024/02/24 10:40:29;;;;;;;1.65;0.50;;;8.00;69.90;;;;;;4080316;29;20190;-80
2024/02/24 10:42:31;;;;;;;10.18;3.10;;;8.10;70.20;;;;;;4081077;29;20055;-81
2024/02/24 10:44:33;;;;;;;2.17;0.60;;;8.30;71.80;;;;;;4082762;29;20074;-79
2024/02/24 10:46:36;;;;;;;1.48;0.57;;;8.30;66.80;;;;;;4083175;29;20051;-88
2024/02/24 10:48:36;;;;;;;1.63;0.50;;;8.40;66.10;;;;;;4090405;29;20086;-90
2024/02/24 10:50:39;;;;;;;1.90;0.43;;;8.40;65.50;;;;;;4086652;29;20658;-86
2024/02/24 10:52:41;;;;;;;0.82;0.28;;;8.40;65.00;;;;;;4087405;29;20073;-85
2024/02/24 10:54:46;;;;;;;2.83;0.40;;;8.40;64.90;;;;;;4077128;29;20052;-85
2024/02/24 10:56:52;;;;;;;0.47;0.20;;;8.50;64.80;;;;;;4078634;29;20051;-81
2024/02/24 10:59:06;;;;;;;1.48;0.40;;;8.50;64.40;;;;;;4087352;29;20048;-85
2024/02/24 11:01:08;;;;;;;1.58;0.40;;;8.50;64.20;;;;;;4080294;29;20056;-84
2024/02/24 11:03:12;;;;;;;1.50;0.38;;;8.50;63.80;;;;;;4083257;29;20473;-83
2024/02/24 11:05:15;;;;;;;1.02;0.40;;;8.40;63.50;;;;;;4083576;29;20043;-83
2024/02/24 11:07:20;;;;;;;1.52;0.50;;;8.50;64.30;;;;;;4083206;29;20394;-85
2024/02/24 11:09:27;;;;;;;2.15;0.70;;;8.60;65.50;;;;;;4087564;29;20058;-82
2024/02/24 11:11:31;;;;;;;3.67;1.17;;;8.50;64.40;;;;;;4085158;29;20054;-87
2024/02/24 11:13:34;;;;;;;2.10;0.70;;;8.70;65.20;;;;;;4083494;29;20047;-87
2024/02/24 11:15:35;;;;;;;0.88;0.35;;;8.80;64.00;;;;;;4087644;29;20079;-88
2024/02/24 11:17:49;;;;;;;2.13;0.50;;;8.80;62.50;;;;;;4085701;29;20047;-87
2024/02/24 11:19:49;;;;;;;1.45;0.30;;;8.80;62.60;;;;;;4087058;29;20050;-85
2024/02/24 11:22:02;;;;;;;2.72;0.43;;;8.70;62.60;;;;;;4086811;29;20083;-86
2024/02/24 11:24:16;;;;;;;1.17;0.50;;;8.50;62.60;;;;;;4087575;29;20054;-87
2024/02/24 11:26:29;;;;;;;1.40;0.50;;;8.60;63.70;;;;;;4087938;29;20482;-85
2024/02/24 11:28:32;;;;;;;1.55;0.50;;;8.60;63.60;;;;;;4087474;29;20048;-85
2024/02/24 11:30:48;;;;;;;1.98;0.55;;;8.80;64.40;;;;;;4087957;29;20070;-86
2024/02/24 11:32:52;;;;;;;2.08;0.50;;;8.90;65.00;;;;;;4086895;29;20094;-86
2024/02/24 11:34:57;;;;;;;1.58;0.47;;;8.90;65.10;;;;;;4086158;29;20089;-85
2024/02/24 11:36:59;;;;;;;2.20;0.43;;;9.00;64.80;;;;;;4087691;29;20048;-86
2024/02/24 11:39:03;;;;;;;1.70;0.40;;;9.00;63.90;;;;;;4088133;29;20055;-86
2024/02/24 11:41:06;;;;;;;1.15;0.30;;;9.10;65.50;;;;;;4088425;29;20051;-86
2024/02/24 11:43:08;;;;;;;1.77;0.50;;;9.10;64.30;;;;;;4086092;29;20056;-86
2024/02/24 11:45:12;;;;;;;0.55;0.30;;;8.90;63.80;;;;;;4088200;29;20075;-84
2024/02/24 11:47:17;;;;;;;1.45;0.43;;;9.00;65.30;;;;;;4088191;29;20044;-85
2024/02/24 11:49:18;;;;;;;1.52;0.57;;;8.90;64.80;;;;;;4088327;29;20052;-85
2024/02/24 11:51:21;;;;;;;1.63;0.40;;;8.80;64.70;;;;;;4087600;29;20413;-83
2024/02/24 11:53:24;;;;;;;0.95;0.30;;;8.90;65.10;;;;;;4087497;29;20119;-85
2024/02/24 11:55:27;;;;;;;1.58;0.30;;;9.00;64.50;;;;;;4087672;29;20080;-85
2024/02/24 11:57:30;;;;;;;2.33;0.60;;;8.90;63.60;;;;;;4087809;29;20123;-84
2024/02/24 11:59:32;;;;;;;1.70;0.52;;;9.10;64.20;;;;;;4088299;29;20044;-85
2024/02/24 12:01:35;;;;;;;1.70;0.57;;;9.00;62.10;;;;;;4088044;29;20063;-84
2024/02/24 12:03:37;;;;;;;2.55;0.55;;;9.10;62.50;;;;;;4088223;29;20052;-85
2024/02/24 12:05:39;;;;;;;1.58;0.50;;;9.30;63.20;;;;;;4086803;29;20098;-85
2024/02/24 12:07:41;;;;;;;1.42;0.50;;;9.40;64.30;;;;;;4088115;29;20048;-85
2024/02/24 12:09:43;;;;;;;2.65;0.60;;;9.40;62.90;;;;;;4087418;29;20114;-86
2024/02/24 12:11:44;;;;;;;1.08;0.40;;;9.40;62.10;;;;;;4087355;29;20553;-86
2024/02/24 12:13:47;;;;;;;1.48;0.40;;;9.50;61.60;;;;;;4088319;29;20075;-86
2024/02/24 12:15:50;;;;;;;0.75;0.30;;;9.50;61.30;;;;;;4088407;29;20051;-86
2024/02/24 12:17:53;;;;;;;1.55;0.30;;;9.60;60.10;;;;;;4090854;29;20047;-86
2024/02/24 12:19:56;;;;;;;1.30;0.50;;;9.80;57.90;;;;;;4092649;29;20051;-86
2024/02/24 12:21:58;;;;;;;1.80;0.35;;;9.70;57.00;;;;;;4093315;29;20582;-86
2024/02/24 12:24:00;;;;;;;0.82;0.30;;;9.90;56.20;;;;;;4088262;29;20106;-86
2024/02/24 12:26:14;;;;;;;1.27;0.47;;;10.10;55.60;;;;;;4086806;29;20047;-86
2024/02/24 12:28:17;;;;;;;1.77;0.47;;;10.30;55.20;;;;;;4087523;29;20050;-87
2024/02/24 12:30:19;;;;;;;0.73;0.20;;;10.40;54.50;;;;;;4086808;29;20123;-86
2024/02/24 12:32:21;;;;;;;1.50;0.40;;;10.30;53.70;;;;;;4086291;29;20060;-85
2024/02/24 12:34:25;;;;;;;0.47;0.30;;;10.20;53.60;;;;;;4086803;29;20047;-86
2024/02/24 12:36:32;;;;;;;1.33;0.40;;;10.20;53.30;;;;;;4087243;29;20083;-87
2024/02/24 12:38:34;;;;;;;1.40;0.40;;;10.20;53.00;;;;;;4087442;29;20080;-85
2024/02/24 12:40:40;;;;;;;2.35;0.50;;;10.30;53.40;;;;;;4087087;29;20122;-84
2024/02/24 12:42:42;;;;;;;1.50;0.40;;;10.30;52.90;;;;;;4087855;29;20466;-85
2024/02/24 12:44:43;;;;;;;1.52;0.30;;;10.10;52.80;;;;;;4089049;29;20409;-87
2024/02/24 12:46:44;;;;;;;1.33;0.40;;;9.90;53.30;;;;;;4088077;29;20143;-86
2024/02/24 12:48:46;;;;;;;1.30;0.40;;;9.80;53.70;;;;;;4088266;29;20545;-88
2024/02/24 12:50:50;;;;;;;0.28;0.20;;;9.80;53.40;;;;;;4088325;29;20103;-86
2024/02/24 12:52:53;;;;;;;1.33;0.40;;;9.90;53.80;;;;;;4089059;29;20079;-86
2024/02/24 12:54:55;;;;;;;0.65;0.30;;;10.10;53.90;;;;;;4087883;29;20075;-85
2024/02/24 12:56:57;;;;;;;1.33;0.30;;;10.40;53.60;;;;;;4086649;29;20173;-83
2024/02/24 12:59:00;;;;;;;1.20;0.30;;;10.30;53.20;;;;;;4087898;29;20095;-86
2024/02/24 13:01:02;;;;;;;1.23;0.40;;;10.50;54.40;;;;;;4087226;29;20053;-83
2024/02/24 13:03:04;;;;;;;2.67;0.40;;;10.70;52.80;;;;;;4086829;29;20088;-84
2024/02/24 13:05:08;;;;;;;0.63;0.20;;;10.70;52.60;;;;;;4086915;29;20438;-86
2024/02/24 13:07:10;;;;;;;1.25;0.40;;;10.80;53.00;;;;;;4086568;29;20072;-87
2024/02/24 13:09:13;;;;;;;1.45;0.50;;;11.00;52.10;;;;;;4085217;29;20417;-87
2024/02/24 13:11:15;;;;;;;1.10;0.40;;;11.10;51.90;;;;;;4086149;29;20056;-86
2024/02/24 13:13:17;;;;;;;1.85;0.47;;;11.10;51.20;;;;;;4087189;29;20117;-87
2024/02/24 13:15:18;;;;;;;1.88;0.40;;;11.10;51.30;;;;;;4090551;29;20103;-87
2024/02/24 13:17:21;;;;;;;2.42;0.50;;;11.40;51.40;;;;;;4090705;29;20051;-86
2024/02/24 13:19:23;;;;;;;1.50;0.52;;;11.60;50.50;;;;;;4090546;29;20126;-86
2024/02/24 13:21:25;;;;;;;1.33;0.47;;;11.60;49.10;;;;;;4090516;29;20393;-86
2024/02/24 13:23:28;;;;;;;2.30;0.40;;;11.50;48.90;;;;;;4090154;29;20047;-85
2024/02/24 13:25:30;;;;;;;1.73;0.50;;;12.00;48.90;;;;;;4090060;29;20107;-85
2024/02/24 13:27:32;;;;;;;3.70;0.50;;;12.00;47.70;;;;;;4090433;29;20103;-86
2024/02/24 13:29:33;;;;;;;1.75;0.60;;;12.50;47.90;;;;;;4102468;29;20048;-86
2024/02/24 13:31:36;;;;;;;1.15;0.43;;;12.70;47.20;;;;;;4103783;29;20051;-86
2024/02/24 13:33:38;;;;;;;1.15;0.55;;;12.70;45.50;;;;;;4102838;29;20083;-83
2024/02/24 13:35:40;;;;;;;2.05;0.52;;;12.70;46.80;;;;;;4102010;29;20081;-84
2024/02/24 13:37:42;;;;;;;1.85;0.60;;;12.80;46.70;;;;;;4101895;29;20043;-84
2024/02/24 13:39:46;;;;;;;1.30;0.40;;;12.90;46.10;;;;;;4103404;29;20051;-85
2024/02/24 13:41:51;;;;;;;2.00;0.50;;;13.10;45.40;;;;;;4103124;29;20051;-88
2024/02/24 13:43:53;;;;;;;1.05;0.50;;;14.60;43.80;;;;;;4105128;29;20054;-87
2024/02/24 13:45:55;;;;;;;2.03;0.60;;;15.70;40.50;;;;;;4091695;29;20052;-84
2024/02/24 13:47:57;;;;;;;1.45;0.40;;;16.10;39.30;;;;;;4094981;29;20055;-85
2024/02/24 13:50:00;;;;;;;1.20;0.50;;;15.30;40.00;;;;;;4096681;29;20044;-87
2024/02/24 13:52:03;;;;;;;0.90;0.40;;;14.10;41.80;;;;;;4100601;29;20119;-86
2024/02/24 13:54:05;;;;;;;1.77;0.57;;;13.20;43.90;;;;;;4094586;29;20055;-87
2024/02/24 13:56:08;;;;;;;2.50;0.60;;;13.10;44.80;;;;;;4103349;29;20071;-85
2024/02/24 13:58:10;;;;;;;1.85;0.63;;;12.90;45.60;;;;;;4105817;29;20048;-86
2024/02/24 14:00:14;;;;;;;1.25;0.50;;;13.30;45.20;;;;;;4098254;29;20052;-84
2024/02/24 14:02:16;;;;;;;0.85;0.40;;;14.00;44.50;;;;;;4089334;29;20055;-85
2024/02/24 14:04:18;;;;;;;1.17;0.40;;;14.40;42.60;;;;;;4088866;29;20047;-85
2024/02/24 14:06:19;;;;;;;1.90;0.60;;;14.30;42.20;;;;;;4088928;29;20504;-86
2024/02/24 14:08:21;;;;;;;1.48;0.50;;;14.10;42.60;;;;;;4088916;29;20090;-85
2024/02/24 14:10:23;;;;;;;2.58;0.50;;;13.80;42.70;;;;;;4089075;29;20107;-85
2024/02/24 14:12:26;;;;;;;1.30;0.60;;;12.90;44.70;;;;;;4100178;29;20078;-85
2024/02/24 14:14:28;;;;;;;1.10;0.40;;;12.90;46.00;;;;;;4097223;29;20079;-86
2024/02/24 14:16:31;;;;;;;0.65;0.35;;;12.70;45.90;;;;;;4092871;29;20110;-84
2024/02/24 14:18:35;;;;;;;1.45;0.50;;;12.40;46.70;;;;;;4091697;29;20092;-85
2024/02/24 14:20:37;;;;;;;1.55;0.40;;;12.00;47.20;;;;;;4087437;29;20079;-85
2024/02/24 14:22:39;;;;;;;0.63;0.22;;;11.90;47.50;;;;;;4087336;29;20086;-85
2024/02/24 14:24:40;;;;;;;1.63;0.60;;;11.80;47.70;;;;;;4089410;29;20051;-86
2024/02/24 14:26:42;;;;;;;0.85;0.38;;;11.80;47.90;;;;;;4088369;29;20052;-86
2024/02/24 14:28:48;;;;;;;0.90;0.32;;;11.70;48.00;;;;;;4087796;29;20044;-85
2024/02/24 14:30:50;;;;;;;1.92;0.32;;;11.50;48.20;;;;;;4088012;29;20143;-85
2024/02/24 14:32:52;;;;;;;1.42;0.45;;;11.00;48.80;;;;;;4088766;29;20044;-84
2024/02/24 14:34:54;;;;;;;1.80;0.50;;;10.70;49.80;;;;;;4088657;29;20051;-86
2024/02/24 14:36:56;;;;;;;1.20;0.30;;;10.70;50.70;;;;;;4071462;29;20108;-85
2024/02/24 14:38:59;;;;;;;1.75;0.40;;;10.70;50.20;;;;;;4087962;29;20052;-83
2024/02/24 14:41:01;;;;;;;1.67;0.32;;;10.70;50.10;;;;;;4086930;29;20052;-85
2024/02/24 14:43:03;;;;;;;1.92;0.30;;;10.80;50.20;;;;;;4088033;29;20051;-86
2024/02/24 14:45:09;;;;;;;1.45;0.40;;;10.70;50.00;;;;;;4088513;29;20458;-86
2024/02/24 14:47:11;;;;;;;1.85;0.60;;;10.50;50.00;;;;;;4089075;29;20047;-84
2024/02/24 14:49:13;;;;;;;1.92;0.57;;;10.40;50.50;;;;;;4088458;29;20044;-85
2024/02/24 14:51:16;;;;;;;1.52;0.43;;;10.30;50.90;;;;;;4088786;29;20466;-86
2024/02/24 14:53:18;;;;;;;1.77;0.50;;;10.30;50.80;;;;;;4088625;29;20052;-85
2024/02/24 14:55:20;;;;;;;1.00;0.30;;;10.20;50.90;;;;;;4090393;29;20118;-84
2024/02/24 14:57:21;;;;;;;0.68;0.30;;;10.10;51.10;;;;;;4088838;29;20447;-84
2024/02/24 14:59:23;;;;;;;1.75;0.60;;;10.10;51.50;;;;;;4095453;29;20047;-85
2024/02/24 15:01:26;;;;;;;0.55;0.30;;;10.00;51.80;;;;;;4098780;29;20521;-85
2024/02/24 15:03:28;;;;;;;1.65;0.60;;;9.90;52.20;;;;;;4088670;29;20091;-86
2024/02/24 15:05:30;;;;;;;1.33;0.50;;;9.80;51.70;;;;;;4088893;29;20072;-83
2024/02/24 15:07:32;;;;;;;1.13;0.30;;;9.80;52.60;;;;;;4088924;29;20191;-86
2024/02/24 15:09:34;;;;;;;1.17;0.35;;;9.70;51.70;;;;;;4091977;29;20075;-84
2024/02/24 15:11:42;;;;;;;0.95;0.47;;;9.60;52.30;;;;;;4092135;29;20043;-85
2024/02/24 15:13:44;;;;;;;1.33;0.40;;;9.60;52.90;;;;;;4092199;29;20071;-85
2024/02/24 15:15:46;;;;;;;1.90;0.60;;;9.60;52.80;;;;;;4088892;29;20054;-84
2024/02/24 15:17:51;;;;;;;3.15;1.10;;;9.60;53.10;;;;;;4088202;29;20099;-86
2024/02/24 15:19:53;;;;;;;2.63;0.90;;;9.70;53.20;;;;;;4090167;29;20056;-85
2024/02/24 15:21:55;;;;;;;2.03;0.50;;;9.80;52.70;;;;;;4089138;29;20536;-84
2024/02/24 15:23:57;;;;;;;1.85;0.55;;;9.80;51.80;;;;;;4088463;29;20073;-86
2024/02/24 15:25:59;;;;;;;1.75;0.50;;;9.80;51.90;;;;;;4070998;29;20091;-86
2024/02/24 15:28:00;;;;;;;1.60;0.60;;;9.80;52.10;;;;;;4088006;29;20047;-86
2024/02/24 15:30:02;;;;;;;1.40;0.50;;;9.70;52.40;;;;;;4087499;29;20107;-85
2024/02/24 15:32:05;;;;;;;2.17;0.60;;;9.70;52.40;;;;;;4088376;29;20052;-83
2024/02/24 15:34:09;;;;;;;2.45;0.60;;;9.60;52.70;;;;;;4087619;29;20055;-85
2024/02/24 15:36:12;;;;;;;1.73;0.60;;;9.50;53.60;;;;;;4086364;29;20083;-85
2024/02/24 15:38:14;;;;;;;1.45;0.50;;;9.10;60.60;;;;;;4086896;29;20485;-84
2024/02/24 15:40:15;;;;;;;1.75;0.55;;;8.50;70.80;;;;;;4086393;29;20056;-84
2024/02/24 15:42:17;;;;;;;2.92;0.80;;;8.20;76.20;;;;;;4087368;29;20103;-85
2024/02/24 15:44:19;;;;;;;1.88;0.70;;;8.00;78.10;;;;;;4085552;29;20115;-84
2024/02/24 15:46:21;;;;;;;5.63;0.70;;;8.00;78.10;;;;;;4086794;29;20102;-84
2024/02/24 15:48:23;;;;;;;2.53;0.70;;;8.00;78.80;;;;;;4086415;29;20048;-84
2024/02/24 15:50:27;;;;;;;1.95;0.73;;;8.00;80.10;;;;;;4087054;29;20051;-85
2024/02/24 15:52:28;;;;;;;2.22;0.70;;;8.30;81.80;;;;;;4087994;29;20055;-84
2024/02/24 15:54:30;;;;;;;3.00;0.80;;;9.80;78.00;;;;;;4087129;29;20050;-85
2024/02/24 15:56:32;;;;;;;3.33;1.17;;;10.00;76.40;;;;;;4086937;29;20056;-86
2024/02/24 15:58:34;;;;;;;5.95;2.13;;;9.60;75.10;;;;;;4086992;29;20094;-85
2024/02/24 16:00:38;;;;;;;3.40;1.10;;;9.40;77.10;;;;;;4086761;29;20111;-87
2024/02/24 16:02:41;;;;;;;1.13;0.57;;;9.60;76.50;;;;;;4086456;29;20055;-85
2024/02/24 16:04:44;;;;;;;12.77;5.43;;;9.90;74.70;;;;;;4087186;29;20051;-84
2024/02/24 16:06:47;;;;;;;2.92;1.30;;;10.30;74.50;;;;;;4087631;29;20056;-85
2024/02/24 16:08:48;;;;;;;6.03;3.38;;;11.10;72.40;;;;;;4087053;29;20492;-86
2024/02/24 16:10:51;;;;;;;3.20;1.10;;;11.90;70.60;;;;;;4087375;29;20051;-85
2024/02/24 16:12:53;;;;;;;4.50;1.85;;;12.00;65.70;;;;;;4085520;29;20055;-83
2024/02/24 16:14:54;;;;;;;4.30;1.83;;;11.60;67.80;;;;;;4086505;29;20103;-82
2024/02/24 16:16:56;;;;;;;5.65;2.97;;;11.00;70.30;;;;;;4086529;29;20043;-85
2024/02/24 16:18:58;;;;;;;1.90;0.80;;;10.30;71.90;;;;;;4084981;29;20087;-85
2024/02/24 16:21:01;;;;;;;1.35;0.50;;;10.00;74.50;;;;;;4087259;29;20541;-84
2024/02/24 16:23:03;;;;;;;1.92;0.60;;;9.70;75.90;;;;;;4086784;29;20047;-84
2024/02/24 16:25:06;;;;;;;1.77;0.68;;;9.50;76.50;;;;;;4085987;29;20047;-84
2024/02/24 16:27:08;;;;;;;1.50;0.60;;;9.40;78.20;;;;;;4086240;29;20115;-85
2024/02/24 16:29:10;;;;;;;1.35;0.35;;;9.30;77.80;;;;;;4086355;29;20111;-84
2024/02/24 16:31:12;;;;;;;1.63;0.50;;;9.20;78.90;;;;;;4086317;29;20181;-85
2024/02/24 16:33:14;;;;;;;1.38;0.45;;;9.00;79.10;;;;;;4086276;29;20482;-85
2024/02/24 16:35:16;;;;;;;1.95;0.45;;;9.20;79.10;;;;;;4086226;29;20197;-83
2024/02/24 16:37:18;;;;;;;1.05;0.40;;;9.80;77.00;;;;;;4086351;29;20075;-83
2024/02/24 16:39:22;;;;;;;1.30;0.55;;;10.60;74.20;;;;;;4086596;29;20044;-86
2024/02/24 16:41:24;;;;;;;1.20;0.50;;;10.40;73.00;;;;;;4086149;29;20051;-84
2024/02/24 16:43:26;;;;;;;1.38;0.60;;;10.00;74.30;;;;;;4089577;29;20143;-85